Time;durP1;ratioP1;P1;durP2;ratioP2;P2;SDS_P1;SDS_P2;PMS_P1;PMS_P2;Temp;Humidity;BMP_temperature;BMP_pressure;BME280_temperature;BME280_humidity;BME280_pressure;Samples;Min_cycle;Max_cycle;Signal;HPM_P1;HPM_P2
2021/12/25 00:00:11;;;;;;;7.95;5.22;;;;;;;-140.79;100.00;63287.88;5041116;28;20056;-54
2021/12/25 00:02:37;;;;;;;8.38;4.43;;;;;;;-140.79;100.00;63287.88;5025795;28;20557;-54
2021/12/25 00:05:03;;;;;;;7.63;4.43;;;;;;;-140.79;100.00;63287.88;5041167;28;20028;-55
2021/12/25 00:07:28;;;;;;;7.10;4.45;;;;;;;-140.79;100.00;63287.88;5041895;28;20020;-54
2021/12/25 00:09:54;;;;;;;10.35;4.47;;;;;;;-140.79;100.00;63287.88;5041764;28;20427;-54
2021/12/25 00:12:19;;;;;;;6.45;4.65;;;;;;;-140.79;100.00;63287.88;5041624;28;20571;-55
2021/12/25 00:14:45;;;;;;;7.55;4.47;;;;;;;-140.79;100.00;63287.88;5045776;28;20411;-54
2021/12/25 00:17:10;;;;;;;9.45;5.00;;;;;;;-140.79;100.00;63287.88;5065766;28;20415;-54
2021/12/25 00:19:35;;;;;;;7.72;4.82;;;;;;;-140.79;100.00;63287.88;5065047;28;20729;-55
2021/12/25 00:22:01;;;;;;;8.15;4.75;;;;;;;-140.79;100.00;63287.88;5049415;28;20487;-56
2021/12/25 00:24:26;;;;;;;7.65;4.40;;;;;;;-140.79;100.00;63287.88;5045172;28;20060;-54
2021/12/25 00:27:05;;;;;;;7.43;4.47;;;;;;;-140.79;100.00;63287.88;5045499;28;20589;-55
2021/12/25 00:35:00;;;;;;;7.20;4.75;;;;;;;-140.79;100.00;63287.88;4959097;28;20492;-54
2021/12/25 00:37:26;;;;;;;9.30;4.88;;;;;;;-140.79;100.00;63287.88;4983320;28;20034;-53
2021/12/25 00:39:52;;;;;;;6.88;4.50;;;;;;;-140.79;100.00;63287.88;5011445;28;20044;-54
2021/12/25 00:42:17;;;;;;;8.05;4.78;;;;;;;-140.79;100.00;63287.88;5060246;28;20197;-54
2021/12/25 00:44:43;;;;;;;6.68;4.20;;;;;;;-140.79;100.00;63287.88;5044859;28;20033;-55
2021/12/25 00:47:08;;;;;;;7.60;4.95;;;;;;;-140.79;100.00;63287.88;5045306;28;20029;-55
2021/12/25 00:49:34;;;;;;;7.53;4.65;;;;;;;-140.79;100.00;63287.88;5044713;28;20090;-54
2021/12/25 00:51:59;;;;;;;6.82;4.50;;;;;;;-140.79;100.00;63287.88;5044623;28;20036;-54
2021/12/25 00:54:25;;;;;;;6.88;4.70;;;;;;;-140.79;100.00;63287.88;5044602;28;20427;-56
2021/12/25 00:56:50;;;;;;;8.07;4.60;;;;;;;-140.79;100.00;63287.88;5044710;28;20029;-55
2021/12/25 00:59:16;;;;;;;6.75;4.30;;;;;;;-140.79;100.00;63287.88;5044591;28;20036;-54
2021/12/25 01:01:41;;;;;;;7.25;4.40;;;;;;;-140.79;100.00;63287.88;5031083;28;20152;-54
2021/12/25 01:04:07;;;;;;;6.57;4.20;;;;;;;-140.79;100.00;63287.88;5040586;28;20021;-55
2021/12/25 01:06:32;;;;;;;6.75;4.28;;;;;;;-140.79;100.00;63287.88;5026167;28;20033;-56
2021/12/25 01:08:58;;;;;;;6.72;4.15;;;;;;;-140.79;100.00;63287.88;5036688;28;20067;-55
2021/12/25 01:11:25;;;;;;;8.85;4.78;;;;;;;-140.79;100.00;63287.88;5034514;28;20041;-55
2021/12/25 01:13:58;;;;;;;7.50;4.53;;;;;;;-140.79;100.00;63287.88;5044149;28;20052;-57
2021/12/25 01:29:20;;;;;;;7.10;4.38;;;;;;;-140.79;100.00;63287.88;5044160;28;20060;-53
2021/12/25 01:39:43;;;;;;;7.53;4.18;;;;;;;-140.79;100.00;63287.88;5045223;28;20040;-54
2021/12/25 01:49:53;;;;;;;7.10;4.13;;;;;;;-140.79;100.00;63287.88;5028106;28;20048;-54
2021/12/25 01:52:25;;;;;;;7.95;4.53;;;;;;;-140.79;100.00;63287.88;5040946;28;20020;-54
2021/12/25 01:54:50;;;;;;;6.60;4.60;;;;;;;-140.79;100.00;63287.88;5043920;28;20052;-54
2021/12/25 01:57:16;;;;;;;6.90;4.53;;;;;;;-140.79;100.00;63287.88;5043719;28;20045;-54
2021/12/25 01:59:41;;;;;;;6.97;4.07;;;;;;;-140.79;100.00;63287.88;5030307;28;20029;-53
2021/12/25 02:02:07;;;;;;;8.35;4.85;;;;;;;-140.79;100.00;63287.88;5039688;28;20788;-55
2021/12/25 02:04:32;;;;;;;7.88;4.32;;;;;;;-140.79;100.00;63287.88;5043473;28;20048;-53
2021/12/25 02:06:58;;;;;;;6.95;3.95;;;;;;;-140.79;100.00;63287.88;5043236;28;20086;-54
2021/12/25 02:09:23;;;;;;;6.13;4.18;;;;;;;-140.79;100.00;63287.88;5042997;28;20032;-54
2021/12/25 02:11:49;;;;;;;6.70;4.38;;;;;;;-140.79;100.00;63287.88;5043272;28;20029;-53
2021/12/25 02:14:15;;;;;;;7.75;4.55;;;;;;;-140.79;100.00;63287.88;5057605;28;20021;-54
2021/12/25 02:16:53;;;;;;;6.10;4.28;;;;;;;-140.79;100.00;63287.88;5046842;28;20078;-55
2021/12/25 02:19:32;;;;;;;7.32;4.28;;;;;;;-140.79;100.00;63287.88;5061528;28;20137;-57
2021/12/25 02:22:01;;;;;;;6.03;3.78;;;;;;;-140.79;100.00;63287.88;5048282;28;20571;-57
2021/12/25 02:24:26;;;;;;;6.50;4.47;;;;;;;-140.79;100.00;63287.88;5043064;28;20335;-58
2021/12/25 02:26:51;;;;;;;6.07;3.78;;;;;;;-140.79;100.00;63287.88;5036076;28;20704;-59
2021/12/25 02:29:17;;;;;;;6.88;4.22;;;;;;;-140.79;100.00;63287.88;5031778;28;20029;-57
2021/12/25 02:31:42;;;;;;;7.45;4.55;;;;;;;-140.79;100.00;63287.88;5043574;28;20094;-57
2021/12/25 02:34:08;;;;;;;6.50;4.18;;;;;;;-140.79;100.00;63287.88;5042918;28;20071;-58
2021/12/25 02:36:33;;;;;;;7.07;3.90;;;;;;;-140.79;100.00;63287.88;5042654;28;20086;-60
2021/12/25 02:38:59;;;;;;;6.80;4.15;;;;;;;-140.79;100.00;63287.88;5043126;28;20021;-58
2021/12/25 02:41:24;;;;;;;7.78;4.88;;;;;;;-140.79;100.00;63287.88;5048135;28;20415;-54
2021/12/25 02:43:50;;;;;;;7.47;4.40;;;;;;;-140.79;100.00;63287.88;5035960;28;20491;-57
2021/12/25 02:46:16;;;;;;;8.23;4.15;;;;;;;-140.79;100.00;63287.88;5042907;28;20495;-57
2021/12/25 02:48:42;;;;;;;5.90;4.03;;;;;;;-140.79;100.00;63287.88;5041992;28;20273;-55
2021/12/25 02:51:08;;;;;;;7.32;4.07;;;;;;;-140.79;100.00;63287.88;5042698;28;20029;-57
2021/12/25 02:53:34;;;;;;;6.22;3.92;;;;;;;-140.79;100.00;63287.88;5041108;28;20392;-55
2021/12/25 02:55:59;;;;;;;7.90;4.45;;;;;;;-140.79;100.00;63287.88;5042842;28;20104;-53
2021/12/25 02:58:25;;;;;;;6.82;4.35;;;;;;;-140.79;100.00;63287.88;5041860;28;20384;-54
2021/12/25 03:01:03;;;;;;;6.50;4.13;;;;;;;-140.79;100.00;63287.88;5037516;28;20036;-55
2021/12/25 03:03:28;;;;;;;7.25;4.40;;;;;;;-140.79;100.00;63287.88;5032411;28;20036;-55
2021/12/25 03:05:54;;;;;;;5.57;3.80;;;;;;;-140.79;100.00;63287.88;5042416;28;20024;-55
2021/12/25 03:08:19;;;;;;;7.35;3.90;;;;;;;-140.79;100.00;63287.88;5041495;28;20143;-56
2021/12/25 03:10:45;;;;;;;5.93;3.53;;;;;;;-140.79;100.00;63287.88;5042268;28;20021;-56
2021/12/25 03:15:47;;;;;;;6.43;4.03;;;;;;;-140.79;100.00;63287.88;5042368;28;20131;-55
2021/12/25 03:18:12;;;;;;;6.93;3.88;;;;;;;-140.79;100.00;63287.88;5041764;28;20285;-56
2021/12/25 03:20:40;;;;;;;5.68;3.83;;;;;;;-140.79;100.00;63287.88;5039115;28;20489;-54
2021/12/25 03:23:06;;;;;;;8.60;4.00;;;;;;;-140.79;100.00;63287.88;5028525;28;20612;-55
2021/12/25 03:25:32;;;;;;;5.68;4.40;;;;;;;-140.79;100.00;63287.88;5042167;28;20111;-56
2021/12/25 03:27:57;;;;;;;5.65;3.55;;;;;;;-140.79;100.00;63287.88;5027108;28;20436;-54
2021/12/25 03:30:24;;;;;;;5.93;3.95;;;;;;;-140.79;100.00;63287.88;5039126;28;20499;-54
2021/12/25 03:32:50;;;;;;;6.93;3.63;;;;;;;-140.79;100.00;63287.88;5041913;28;20039;-54
2021/12/25 03:35:15;;;;;;;6.13;3.58;;;;;;;-140.79;100.00;63287.88;5041846;28;20037;-54
2021/12/25 03:37:40;;;;;;;7.47;4.28;;;;;;;-140.79;100.00;63287.88;5041579;28;20044;-54
2021/12/25 03:40:06;;;;;;;6.18;3.83;;;;;;;-140.79;100.00;63287.88;5042083;28;20040;-54
2021/12/25 03:42:32;;;;;;;5.78;3.90;;;;;;;-140.79;100.00;63287.88;5024709;28;20084;-54
2021/12/25 03:44:57;;;;;;;4.57;3.10;;;;;;;-140.79;100.00;63287.88;5041694;28;20374;-55
2021/12/25 03:47:32;;;;;;;6.85;3.88;;;;;;;-140.79;100.00;63287.88;5041903;28;20033;-56
2021/12/25 03:58:24;;;;;;;6.10;3.72;;;;;;;-140.79;100.00;63287.88;5045816;28;20044;-54
2021/12/25 04:00:50;;;;;;;6.85;3.80;;;;;;;-140.79;100.00;63287.88;5041328;28;20392;-55
2021/12/25 04:04:05;;;;;;;7.18;4.85;;;;;;;-140.79;100.00;63287.88;5033245;28;20502;-55
2021/12/25 04:06:07;;;;;;;6.32;3.45;;;;;;;-140.79;100.00;63287.88;5038048;28;20910;-55
2021/12/25 04:08:40;;;;;;;6.95;4.10;;;;;;;-140.79;100.00;63287.88;5045201;28;20038;-54
2021/12/25 04:11:12;;;;;;;7.55;3.63;;;;;;;-140.79;100.00;63287.88;5045845;28;20029;-54
2021/12/25 04:13:37;;;;;;;5.97;3.75;;;;;;;-140.79;100.00;63287.88;5045487;28;20036;-54
2021/12/25 04:16:02;;;;;;;5.50;3.17;;;;;;;-140.79;100.00;63287.88;5045720;28;20025;-56
2021/12/25 04:18:28;;;;;;;6.60;3.92;;;;;;;-140.79;100.00;63287.88;5044651;28;20507;-55
2021/12/25 04:20:53;;;;;;;5.30;3.45;;;;;;;-140.79;100.00;63287.88;5040542;28;20515;-56
2021/12/25 04:23:24;;;;;;;5.60;3.65;;;;;;;-140.79;100.00;63287.88;5040562;28;20029;-54
2021/12/25 04:25:49;;;;;;;5.80;3.53;;;;;;;-140.79;100.00;63287.88;5037851;28;20477;-54
2021/12/25 04:28:32;;;;;;;6.72;3.75;;;;;;;-140.79;100.00;63287.88;5045318;28;20041;-58
2021/12/25 04:31:25;;;;;;;6.55;3.50;;;;;;;-140.79;100.00;63287.88;5045711;28;20191;-53
2021/12/25 05:01:53;;;;;;;5.15;3.28;;;;;;;-140.79;100.00;63287.88;5034233;28;20438;-54
2021/12/25 05:04:57;;;;;;;5.68;3.47;;;;;;;-140.79;100.00;63287.88;5040428;28;20037;-56
2021/12/25 05:07:12;;;;;;;5.00;3.22;;;;;;;-140.79;100.00;63287.88;5041230;28;20068;-55
2021/12/25 05:09:38;;;;;;;5.05;3.35;;;;;;;-140.79;100.00;63287.88;5044334;28;20448;-54
2021/12/25 05:12:03;;;;;;;5.07;3.45;;;;;;;-140.79;100.00;63287.88;5044341;28;20059;-54
2021/12/25 05:14:29;;;;;;;5.05;3.17;;;;;;;-140.79;100.00;63287.88;5044206;28;20029;-54
2021/12/25 05:16:54;;;;;;;5.20;3.65;;;;;;;-140.79;100.00;63287.88;5044678;28;20041;-55
2021/12/25 05:19:20;;;;;;;4.95;3.05;;;;;;;-140.79;100.00;63287.88;5043960;28;20052;-55
2021/12/25 05:21:45;;;;;;;6.20;3.65;;;;;;;-140.79;100.00;63287.88;5032262;28;20049;-53
2021/12/25 05:24:11;;;;;;;5.63;3.33;;;;;;;-140.79;100.00;63287.88;5039296;28;20490;-54
2021/12/25 05:26:36;;;;;;;4.28;2.85;;;;;;;-140.79;100.00;63287.88;5044442;28;20041;-55
2021/12/25 05:29:02;;;;;;;5.47;3.58;;;;;;;-140.79;100.00;63287.88;5044203;28;20646;-55
2021/12/25 05:31:29;;;;;;;4.97;3.10;;;;;;;-140.79;100.00;63287.88;5044181;28;20040;-55
2021/12/25 05:33:55;;;;;;;6.15;3.30;;;;;;;-140.79;100.00;63287.88;5043856;28;20038;-55
2021/12/25 05:36:20;;;;;;;6.15;3.42;;;;;;;-140.79;100.00;63287.88;5043811;28;20108;-57
2021/12/25 05:38:46;;;;;;;4.57;3.17;;;;;;;-140.79;100.00;63287.88;5043736;28;20402;-54
2021/12/25 05:41:12;;;;;;;4.45;3.10;;;;;;;-140.79;100.00;63287.88;5037027;28;20037;-53
2021/12/25 05:43:37;;;;;;;5.82;2.83;;;;;;;-140.79;100.00;63287.88;5034462;28;20017;-54
2021/12/25 05:46:03;;;;;;;7.05;3.53;;;;;;;-140.79;100.00;63287.88;5042093;28;20032;-55
2021/12/25 05:48:29;;;;;;;5.03;3.30;;;;;;;-140.79;100.00;63287.88;5040541;28;20036;-53
2021/12/25 05:50:54;;;;;;;5.05;3.13;;;;;;;-140.79;100.00;63287.88;5042936;28;20118;-54
2021/12/25 05:53:20;;;;;;;4.18;2.85;;;;;;;-140.79;100.00;63287.88;5043519;28;20036;-57
2021/12/25 05:55:45;;;;;;;5.72;3.50;;;;;;;-140.79;100.00;63287.88;5043889;28;20025;-54
2021/12/25 05:58:10;;;;;;;5.00;3.33;;;;;;;-140.79;100.00;63287.88;5043731;28;20442;-54
2021/12/25 06:00:36;;;;;;;6.07;3.80;;;;;;;-140.79;100.00;63287.88;5041309;28;20060;-55
2021/12/25 06:03:03;;;;;;;3.85;2.60;;;;;;;-140.79;100.00;63287.88;5048607;28;20107;-54
2021/12/25 06:05:28;;;;;;;4.25;3.05;;;;;;;-140.79;100.00;63287.88;5055918;28;20052;-56
2021/12/25 06:07:54;;;;;;;4.75;3.00;;;;;;;-140.79;100.00;63287.88;5061132;28;20029;-55
2021/12/25 06:10:19;;;;;;;4.28;2.95;;;;;;;-140.79;100.00;63287.88;5053049;28;20024;-55
2021/12/25 06:12:47;;;;;;;4.07;2.50;;;;;;;-140.79;100.00;63287.88;5058687;28;20017;-57
2021/12/25 06:15:14;;;;;;;4.85;2.78;;;;;;;-140.79;100.00;63287.88;5060699;28;20041;-57
2021/12/25 06:17:39;;;;;;;4.72;2.92;;;;;;;-140.79;100.00;63287.88;5059679;28;20028;-55
2021/12/25 06:20:05;;;;;;;3.88;2.80;;;;;;;-140.79;100.00;63287.88;5058749;28;20036;-56
2021/12/25 06:22:31;;;;;;;4.05;2.97;;;;;;;-140.79;100.00;63287.88;5051483;28;20033;-54
2021/12/25 06:24:56;;;;;;;3.78;2.65;;;;;;;-140.79;100.00;63287.88;5059330;28;20373;-54
2021/12/25 06:27:22;;;;;;;4.53;2.92;;;;;;;-140.79;100.00;63287.88;5059858;28;20643;-56
2021/12/25 06:29:47;;;;;;;4.20;3.10;;;;;;;-140.79;100.00;63287.88;5059749;28;20032;-54
2021/12/25 06:32:13;;;;;;;3.80;2.58;;;;;;;-140.79;100.00;63287.88;5055205;28;20036;-53
2021/12/25 06:34:38;;;;;;;4.03;2.70;;;;;;;-140.79;100.00;63287.88;5058980;28;20442;-53
2021/12/25 06:37:04;;;;;;;5.05;3.30;;;;;;;-140.79;100.00;63287.88;5056845;28;20526;-56
2021/12/25 06:39:30;;;;;;;4.60;2.85;;;;;;;-140.79;100.00;63287.88;5059054;28;20017;-53
2021/12/25 06:41:56;;;;;;;6.05;3.20;;;;;;;-140.79;100.00;63287.88;5056624;28;20510;-57
2021/12/25 06:44:24;;;;;;;5.47;3.78;;;;;;;-140.79;100.00;63287.88;5058972;28;20044;-55
2021/12/25 06:46:50;;;;;;;4.45;2.88;;;;;;;-140.79;100.00;63287.88;5059270;28;20305;-54
2021/12/25 06:49:16;;;;;;;4.68;3.25;;;;;;;-140.79;100.00;63287.88;5054446;28;20514;-55
2021/12/25 06:51:41;;;;;;;4.38;3.00;;;;;;;-140.79;100.00;63287.88;5042302;28;20043;-56
2021/12/25 06:54:07;;;;;;;3.72;2.60;;;;;;;-140.79;100.00;63287.88;5054330;28;20022;-55
2021/12/25 06:56:32;;;;;;;3.97;2.58;;;;;;;-140.79;100.00;63287.88;5054223;28;20036;-55
2021/12/25 06:58:57;;;;;;;6.00;3.30;;;;;;;-140.79;100.00;63287.88;5056812;28;20074;-54
2021/12/25 07:01:23;;;;;;;4.43;2.90;;;;;;;-140.79;100.00;63287.88;4994756;28;20037;-56
2021/12/25 07:03:48;;;;;;;6.80;4.45;;;;;;;-140.79;100.00;63287.88;5039750;28;20028;-57
2021/12/25 07:06:14;;;;;;;7.60;4.55;;;;;;;-140.79;100.00;63287.88;5042098;28;20542;-59
2021/12/25 07:08:39;;;;;;;4.28;3.10;;;;;;;-140.79;100.00;63287.88;5041185;28;20040;-56
2021/12/25 07:11:05;;;;;;;4.65;2.85;;;;;;;-140.79;100.00;63287.88;5044038;28;20036;-54
2021/12/25 07:13:30;;;;;;;4.70;2.58;;;;;;;-140.79;100.00;63287.88;5042829;28;20079;-53
2021/12/25 07:15:56;;;;;;;4.28;2.70;;;;;;;-140.79;100.00;63287.88;5045001;28;20662;-56
2021/12/25 07:18:21;;;;;;;5.03;3.10;;;;;;;-140.79;100.00;63287.88;5045029;28;20079;-56
2021/12/25 07:20:48;;;;;;;4.70;3.40;;;;;;;-140.79;100.00;63287.88;5031816;28;20028;-53
2021/12/25 07:23:15;;;;;;;5.22;3.67;;;;;;;-140.79;100.00;63287.88;5062548;28;20037;-53
2021/12/25 07:25:40;;;;;;;5.80;4.05;;;;;;;-140.79;100.00;63287.88;5057190;28;20025;-55
2021/12/25 07:28:06;;;;;;;4.05;2.80;;;;;;;-140.79;100.00;63287.88;5061280;28;20044;-57
2021/12/25 07:30:32;;;;;;;3.80;2.40;;;;;;;-140.79;100.00;63287.88;5046077;28;20032;-56
2021/12/25 07:32:57;;;;;;;3.97;2.75;;;;;;;-140.79;100.00;63287.88;5054872;28;20048;-54
2021/12/25 07:35:23;;;;;;;3.58;2.60;;;;;;;-140.79;100.00;63287.88;5059028;28;20480;-54
2021/12/25 07:37:48;;;;;;;3.72;2.60;;;;;;;-140.79;100.00;63287.88;5060277;28;20055;-54
2021/12/25 07:40:14;;;;;;;4.50;2.85;;;;;;;-140.79;100.00;63287.88;5060549;28;20403;-55
2021/12/25 07:42:39;;;;;;;3.55;2.38;;;;;;;-140.79;100.00;63287.88;5044165;28;20033;-60
2021/12/25 07:45:06;;;;;;;4.53;2.88;;;;;;;-140.79;100.00;63287.88;5047627;28;20032;-53
2021/12/25 07:47:35;;;;;;;4.25;2.92;;;;;;;-140.79;100.00;63287.88;5052982;28;20074;-53
2021/12/25 07:50:02;;;;;;;6.30;4.18;;;;;;;-140.79;100.00;63287.88;5062793;28;20129;-57
2021/12/25 07:52:28;;;;;;;25.10;19.02;;;;;;;-140.79;100.00;63287.88;5062914;28;20059;-57
2021/12/25 07:54:53;;;;;;;4.95;3.20;;;;;;;-140.79;100.00;63287.88;5042644;28;20025;-55
2021/12/25 07:57:19;;;;;;;4.32;2.75;;;;;;;-140.79;100.00;63287.88;5042341;28;20025;-55
2021/12/25 07:59:44;;;;;;;3.67;2.35;;;;;;;-140.79;100.00;63287.88;5050854;28;20025;-55
2021/12/25 08:02:10;;;;;;;5.40;2.70;;;;;;;-140.79;100.00;63287.88;5027788;28;20060;-55
2021/12/25 08:04:35;;;;;;;5.07;3.33;;;;;;;-140.79;100.00;63287.88;5046202;28;20046;-57
2021/12/25 08:07:01;;;;;;;60.28;34.20;;;;;;;-140.79;100.00;63287.88;5053921;28;20111;-57
2021/12/25 08:09:30;;;;;;;3.83;2.67;;;;;;;-140.79;100.00;63287.88;5055058;28;20025;-56
2021/12/25 08:11:56;;;;;;;5.15;3.50;;;;;;;-140.79;100.00;63287.88;5056564;28;20055;-57
2021/12/25 08:14:25;;;;;;;22.25;12.85;;;;;;;-140.79;100.00;63287.88;5074956;28;20124;-55
2021/12/25 08:16:54;;;;;;;6.82;4.63;;;;;;;-140.79;100.00;63287.88;5057904;28;20507;-55
2021/12/25 08:19:20;;;;;;;5.82;3.53;;;;;;;-140.79;100.00;63287.88;5058348;28;20028;-56
2021/12/25 08:21:46;;;;;;;4.60;2.67;;;;;;;-140.79;100.00;63287.88;5047189;28;20094;-58
2021/12/25 08:24:11;;;;;;;3.65;2.53;;;;;;;-140.79;100.00;63287.88;5039167;28;20021;-58
2021/12/25 08:26:36;;;;;;;5.45;3.33;;;;;;;-140.79;100.00;63287.88;5039325;28;20446;-58
2021/12/25 08:29:02;;;;;;;4.38;2.80;;;;;;;-140.79;100.00;63287.88;5040644;28;20059;-57
2021/12/25 08:31:27;;;;;;;38.25;24.15;;;;;;;-140.79;100.00;63287.88;5040606;28;20502;-58
2021/12/25 08:33:53;;;;;;;7.95;5.38;;;;;;;-140.79;100.00;63287.88;5041324;28;20063;-55
2021/12/25 08:36:18;;;;;;;5.65;3.60;;;;;;;-140.79;100.00;63287.88;5042592;28;20048;-56
2021/12/25 08:38:43;;;;;;;4.97;2.90;;;;;;;-140.79;100.00;63287.88;5044962;28;20082;-56
2021/12/25 08:41:09;;;;;;;5.60;3.83;;;;;;;-140.79;100.00;63287.88;5039674;28;20030;-57
2021/12/25 08:43:44;;;;;;;27.63;20.02;;;;;;;-140.79;100.00;63287.88;5052703;28;20012;-54
2021/12/25 08:46:17;;;;;;;76.80;46.90;;;;;;;-140.79;100.00;63287.88;5063310;28;20016;-54
2021/12/25 08:48:43;;;;;;;31.50;19.95;;;;;;;-140.79;100.00;63287.88;5050322;28;20041;-56
2021/12/25 08:51:09;;;;;;;136.88;89.70;;;;;;;-140.79;100.00;63287.88;5059369;28;20127;-57
2021/12/25 08:53:34;;;;;;;46.47;41.40;;;;;;;-140.79;100.00;63287.88;5051573;28;20036;-57
2021/12/25 08:56:00;;;;;;;152.77;94.03;;;;;;;-140.79;100.00;63287.88;5037705;28;20566;-58
2021/12/25 08:58:26;;;;;;;54.60;40.20;;;;;;;-140.79;100.00;63287.88;5044600;28;20123;-56
2021/12/25 09:00:56;;;;;;;28.33;18.02;;;;;;;-140.79;100.00;63287.88;5024710;28;20030;-57
2021/12/25 09:03:25;;;;;;;149.27;83.50;;;;;;;-140.79;100.00;63287.88;5032251;28;20036;-58
2021/12/25 09:05:52;;;;;;;25.00;19.63;;;;;;;-140.79;100.00;63287.88;5050828;28;20143;-58
2021/12/25 09:08:17;;;;;;;73.32;38.03;;;;;;;-140.79;100.00;63287.88;5060425;28;20039;-56
2021/12/25 09:10:42;;;;;;;20.48;13.35;;;;;;;-140.79;100.00;63287.88;5046649;28;20469;-54
2021/12/25 09:13:08;;;;;;;88.43;51.78;;;;;;;-140.79;100.00;63287.88;5042919;28;20037;-55
2021/12/25 09:15:33;;;;;;;15.38;12.30;;;;;;;-140.79;100.00;63287.88;5044777;28;20032;-54
2021/12/25 09:17:59;;;;;;;51.10;34.45;;;;;;;-140.79;100.00;63287.88;5031768;28;20079;-53
2021/12/25 09:20:24;;;;;;;22.00;20.10;;;;;;;-140.79;100.00;63287.88;5048061;28;20082;-55
2021/12/25 09:22:50;;;;;;;4.70;3.10;;;;;;;-140.79;100.00;63287.88;5028492;28;20041;-54
2021/12/25 09:25:15;;;;;;;20.05;11.95;;;;;;;-140.79;100.00;63287.88;5044197;28;20028;-53
2021/12/25 09:27:41;;;;;;;7.03;4.20;;;;;;;-140.79;100.00;63287.88;5044176;28;20036;-57
2021/12/25 09:30:07;;;;;;;8.10;5.35;;;;;;;-140.79;100.00;63287.88;5044421;28;20037;-56
2021/12/25 09:32:32;;;;;;;6.18;3.08;;;;;;;-140.79;100.00;63287.88;5025897;28;20694;-53
2021/12/25 09:35:00;;;;;;;7.57;5.32;;;;;;;-140.79;100.00;63287.88;5043673;28;20021;-57
2021/12/25 09:37:26;;;;;;;5.20;2.70;;;;;;;-140.79;100.00;63287.88;5044068;28;20040;-52
2021/12/25 09:39:52;;;;;;;4.30;2.78;;;;;;;-140.79;100.00;63287.88;5044119;28;20451;-54
2021/12/25 09:42:19;;;;;;;7.45;3.40;;;;;;;-140.79;100.00;63287.88;5033061;28;20040;-54
2021/12/25 09:44:45;;;;;;;4.40;2.90;;;;;;;-140.79;100.00;63287.88;5043931;28;20033;-53
2021/12/25 09:47:10;;;;;;;6.47;3.78;;;;;;;-140.79;100.00;63287.88;5044138;28;20032;-54
2021/12/25 09:49:36;;;;;;;5.03;2.97;;;;;;;-140.79;100.00;63287.88;5043193;28;20423;-56
2021/12/25 09:52:01;;;;;;;5.97;2.53;;;;;;;-140.79;100.00;63287.88;5043908;28;20029;-55
2021/12/25 09:54:28;;;;;;;5.53;2.92;;;;;;;-140.79;100.00;63287.88;5045323;28;20037;-54
2021/12/25 09:56:56;;;;;;;6.45;3.13;;;;;;;-140.79;100.00;63287.88;5050068;28;20041;-54
2021/12/25 09:59:21;;;;;;;4.32;2.72;;;;;;;-140.79;100.00;63287.88;5056813;28;20025;-52
2021/12/25 10:01:48;;;;;;;4.90;2.75;;;;;;;-140.79;100.00;63287.88;5047523;28;20122;-54
2021/12/25 10:04:36;;;;;;;8.15;3.38;;;;;;;-140.79;100.00;63287.88;5041901;28;20049;-54
2021/12/25 10:07:27;;;;;;;13.15;11.52;;;;;;;-140.79;100.00;63287.88;5052505;28;20041;-55
2021/12/25 10:10:03;;;;;;;49.58;44.78;;;;;;;-140.79;100.00;63287.88;5061735;28;20065;-54
2021/12/25 10:12:48;;;;;;;62.40;55.80;;;;;;;-140.79;100.00;63287.88;5061453;28;20036;-59
2021/12/25 10:15:25;;;;;;;36.25;32.65;;;;;;;-140.79;100.00;63287.88;5057604;28;20028;-53
2021/12/25 10:17:55;;;;;;;65.93;58.70;;;;;;;-140.79;100.00;63287.88;5052949;28;20025;-56
2021/12/25 10:20:22;;;;;;;72.50;62.20;;;;;;;-140.79;100.00;63287.88;5042319;28;20131;-56
2021/12/25 10:23:13;;;;;;;42.58;38.25;;;;;;;-140.79;100.00;63287.88;5026268;28;20048;-55
2021/12/25 10:25:59;;;;;;;43.88;39.45;;;;;;;-140.79;100.00;63287.88;5041120;28;20024;-54
2021/12/25 10:28:32;;;;;;;53.00;47.50;;;;;;;-140.79;100.00;63287.88;5043999;28;20033;-56
2021/12/25 10:31:08;;;;;;;59.63;53.13;;;;;;;-140.79;100.00;63287.88;5048764;28;20025;-58
2021/12/25 10:33:37;;;;;;;84.82;67.32;;;;;;;-140.79;100.00;63287.88;5055868;28;20024;-57
2021/12/25 10:36:08;;;;;;;112.20;84.07;;;;;;;-140.79;100.00;63287.88;5061193;28;20672;-56
2021/12/25 10:38:33;;;;;;;50.70;45.38;;;;;;;-140.79;100.00;63287.88;5058434;28;20937;-56
2021/12/25 10:41:20;;;;;;;54.80;41.03;;;;;;;-140.79;100.00;63287.88;5056578;28;20098;-55
2021/12/25 10:43:47;;;;;;;52.00;34.30;;;;;;;-140.79;100.00;63287.88;5056883;28;20033;-55
2021/12/25 10:46:13;;;;;;;17.00;12.32;;;;;;;-140.79;100.00;63287.88;5057894;28;20094;-54
2021/12/25 10:48:38;;;;;;;40.33;35.97;;;;;;;-140.79;100.00;63287.88;5058250;28;20534;-61
2021/12/25 10:51:04;;;;;;;15.00;10.50;;;;;;;-140.79;100.00;63287.88;5059155;28;20306;-53
2021/12/25 10:53:41;;;;;;;24.27;18.15;;;;;;;-140.79;100.00;63287.88;5061448;28;20024;-54
2021/12/25 10:56:09;;;;;;;22.88;19.17;;;;;;;-140.79;100.00;63287.88;5049985;28;20039;-56
2021/12/25 10:58:34;;;;;;;41.13;36.80;;;;;;;-140.79;100.00;63287.88;5044787;28;20040;-55
2021/12/25 11:01:00;;;;;;;12.85;11.48;;;;;;;-140.79;100.00;63287.88;5060535;28;20032;-58
2021/12/25 11:03:30;;;;;;;39.00;32.45;;;;;;;-140.79;100.00;63287.88;5058799;28;20047;-59
2021/12/25 11:06:01;;;;;;;63.95;44.38;;;;;;;-140.79;100.00;63287.88;5059176;28;20032;-55
2021/12/25 11:08:26;;;;;;;23.92;16.30;;;;;;;-140.79;100.00;63287.88;5061330;28;20025;-56
2021/12/25 11:10:58;;;;;;;9.40;4.50;;;;;;;-140.79;100.00;63287.88;5057722;28;20086;-55
2021/12/25 11:13:27;;;;;;;11.27;7.05;;;;;;;-140.79;100.00;63287.88;5042424;28;20048;-54
2021/12/25 11:16:01;;;;;;;49.05;32.88;;;;;;;-140.79;100.00;63287.88;5042317;28;20075;-61
2021/12/25 11:18:27;;;;;;;21.42;19.52;;;;;;;-140.79;100.00;63287.88;5042308;28;20064;-55
2021/12/25 11:20:52;;;;;;;9.90;5.40;;;;;;;-140.79;100.00;63287.88;5042257;28;20068;-54
2021/12/25 11:23:17;;;;;;;8.45;3.85;;;;;;;-140.79;100.00;63287.88;5054943;28;20028;-55
2021/12/25 11:25:43;;;;;;;11.88;8.45;;;;;;;-140.79;100.00;63287.88;5048516;28;20021;-57
2021/12/25 11:28:10;;;;;;;9.70;8.20;;;;;;;-140.79;100.00;63287.88;5042330;28;20029;-55
2021/12/25 11:30:38;;;;;;;44.30;34.80;;;;;;;-140.79;100.00;63287.88;5047374;28;20031;-55
2021/12/25 11:33:04;;;;;;;22.67;20.58;;;;;;;-140.79;100.00;63287.88;5054016;28;20083;-56
2021/12/25 11:35:31;;;;;;;10.32;6.05;;;;;;;-140.79;100.00;63287.88;5053568;28;20066;-56
2021/12/25 11:37:57;;;;;;;15.00;8.52;;;;;;;-140.79;100.00;63287.88;5041593;28;20025;-58
2021/12/25 11:40:25;;;;;;;7.75;5.03;;;;;;;-140.79;100.00;63287.88;5051306;28;20106;-57
2021/12/25 11:42:53;;;;;;;36.08;22.65;;;;;;;-140.79;100.00;63287.88;5056607;28;20034;-55
2021/12/25 11:45:32;;;;;;;24.92;15.82;;;;;;;-140.79;100.00;63287.88;5042838;28;20099;-53
2021/12/25 11:48:11;;;;;;;9.15;7.10;;;;;;;-140.79;100.00;63287.88;5061054;28;20085;-56
2021/12/25 11:50:42;;;;;;;19.80;10.43;;;;;;;-140.79;100.00;63287.88;5057910;28;20530;-57
2021/12/25 11:53:43;;;;;;;13.68;8.90;;;;;;;-140.79;100.00;63287.88;5058541;28;20040;-54
2021/12/25 11:58:45;;;;;;;14.00;7.35;;;;;;;-140.79;100.00;63287.88;5045286;28;20110;-55
2021/12/25 12:01:29;;;;;;;14.23;9.77;;;;;;;-140.79;100.00;63287.88;5037501;28;20038;-57
2021/12/25 12:04:04;;;;;;;113.43;64.20;;;;;;;-140.79;100.00;63287.88;5037243;28;20737;-58
2021/12/25 12:06:47;;;;;;;57.85;29.77;;;;;;;-140.79;100.00;63287.88;5042967;28;20081;-55
2021/12/25 12:09:44;;;;;;;24.25;13.40;;;;;;;-140.79;100.00;63287.88;5032821;28;20120;-57
2021/12/25 12:12:16;;;;;;;137.65;74.78;;;;;;;-140.79;100.00;63287.88;5021291;28;20072;-56
2021/12/25 12:14:42;;;;;;;45.83;26.52;;;;;;;-140.79;100.00;63287.88;5043732;28;20335;-54
2021/12/25 12:17:24;;;;;;;52.63;29.80;;;;;;;-140.79;100.00;63287.88;5044133;28;20549;-54
2021/12/25 12:19:51;;;;;;;8.15;4.72;;;;;;;-140.79;100.00;63287.88;5048342;28;20546;-55
2021/12/25 12:25:41;;;;;;;11.13;7.10;;;;;;;-140.79;100.00;63287.88;5053243;28;20036;-55